createdAt,value
2022-11-05T00:01:12.775Z,15.77
2022-11-05T00:03:58.064Z,14.98
2022-11-05T00:06:43.474Z,15.35
2022-11-05T00:09:29.572Z,14.32
2022-11-05T00:12:21.078Z,14.40
2022-11-05T00:15:06.603Z,14.20
2022-11-05T00:17:33.643Z,14.10
2022-11-05T00:20:00.387Z,14.57
2022-11-05T00:22:46.353Z,14.25
2022-11-05T00:25:16.894Z,14.13
2022-11-05T00:27:52.135Z,12.65
2022-11-05T00:30:23.880Z,13.13
2022-11-05T00:32:51.990Z,13.98
2022-11-05T00:35:20.873Z,14.02
2022-11-05T00:37:50.229Z,12.65
2022-11-05T00:40:17.534Z,12.10
2022-11-05T00:43:02.777Z,14.25
2022-11-05T00:45:31.032Z,12.93
2022-11-05T00:48:16.249Z,13.88
2022-11-05T00:50:42.974Z,14.48
2022-11-05T00:53:10.137Z,14.25
2022-11-05T00:55:39.697Z,13.88
2022-11-05T00:58:09.757Z,14.88
2022-11-05T01:01:16.824Z,14.43
2022-11-05T01:04:08.870Z,14.20
2022-11-05T01:06:38.250Z,13.50
2022-11-05T01:09:05.179Z,13.65
2022-11-05T01:11:35.369Z,15.55
2022-11-05T01:14:13.466Z,14.13
2022-11-05T01:16:43.204Z,14.15
2022-11-05T01:19:10.761Z,14.57
2022-11-05T01:21:38.054Z,14.10
2022-11-05T01:24:07.395Z,13.18
2022-11-05T01:26:34.345Z,13.95
2022-11-05T01:29:08.713Z,11.50
2022-11-05T01:31:35.764Z,12.07
2022-11-05T01:34:02.540Z,10.98
2022-11-05T01:36:29.273Z,12.57
2022-11-05T01:38:56.038Z,10.70
2022-11-05T01:41:22.874Z,11.32
2022-11-05T01:43:57.298Z,10.65
2022-11-05T01:46:29.713Z,11.50
2022-11-05T01:49:03.366Z,11.13
2022-11-05T01:51:31.133Z,9.82
2022-11-05T01:54:03.000Z,10.20
2022-11-05T01:56:40.972Z,10.32
2022-11-05T01:59:13.807Z,10.02
2022-11-05T02:01:40.746Z,10.30
2022-11-05T02:04:12.634Z,10.88
2022-11-05T02:06:46.316Z,10.43
2022-11-05T02:09:25.122Z,13.65
2022-11-05T02:11:52.140Z,15.35
2022-11-05T02:14:18.984Z,14.40
2022-11-05T02:17:32.979Z,12.85
2022-11-05T02:20:52.739Z,13.13
2022-11-05T02:23:40.603Z,12.10
2022-11-05T02:26:51.796Z,10.45
2022-11-05T02:29:37.300Z,11.18
2022-11-05T02:32:25.283Z,12.25
2022-11-05T02:34:56.864Z,9.90
2022-11-05T02:37:35.562Z,9.90
2022-11-05T02:40:28.941Z,8.90
2022-11-05T02:43:15.127Z,9.90
2022-11-05T02:46:01.633Z,9.88
2022-11-05T02:48:43.950Z,8.77
2022-11-05T02:54:17.008Z,8.55
2022-11-05T02:56:48.343Z,7.65
2022-11-05T02:59:15.051Z,9.52
2022-11-05T03:01:43.712Z,9.35
2022-11-05T03:04:13.155Z,8.95
2022-11-05T03:06:58.533Z,9.55
2022-11-05T03:09:46.851Z,8.85
2022-11-05T03:12:50.529Z,9.98
2022-11-05T03:15:35.765Z,9.73
2022-11-05T03:18:12.957Z,9.32
2022-11-05T03:20:57.030Z,10.15
2022-11-05T03:23:43.983Z,9.23
2022-11-05T03:26:31.437Z,9.85
2022-11-05T03:29:13.073Z,9.75
2022-11-05T03:31:41.336Z,9.82
2022-11-05T03:34:11.634Z,9.27
2022-11-05T03:36:42.798Z,9.85
2022-11-05T03:39:13.973Z,8.63
2022-11-05T03:41:45.528Z,9.33
2022-11-05T03:44:18.508Z,8.75
2022-11-05T03:46:49.395Z,9.40
2022-11-05T03:49:21.022Z,11.77
2022-11-05T03:52:01.516Z,11.35
2022-11-05T03:54:28.613Z,14.27
2022-11-05T03:57:10.647Z,11.32
2022-11-05T03:59:45.519Z,12.35
2022-11-05T04:02:15.083Z,11.13
2022-11-05T04:04:42.193Z,11.10
2022-11-05T04:07:31.382Z,12.23
2022-11-05T04:10:17.117Z,13.07
2022-11-05T04:13:02.704Z,12.02
2022-11-05T04:15:29.724Z,11.93
2022-11-05T04:17:58.893Z,11.50
2022-11-05T04:20:44.740Z,11.02
2022-11-05T04:23:30.022Z,10.20
2022-11-05T04:25:56.748Z,10.57
2022-11-05T04:28:43.438Z,11.60
2022-11-05T04:31:10.101Z,12.45
2022-11-05T04:33:36.789Z,11.52
2022-11-05T04:36:03.640Z,12.52
2022-11-05T04:38:30.319Z,13.55
2022-11-05T04:41:13.445Z,12.07
2022-11-05T04:43:40.169Z,11.30
2022-11-05T04:46:06.954Z,10.43
2022-11-05T04:48:34.146Z,11.07
2022-11-05T04:51:01.261Z,10.38
2022-11-05T04:53:28.099Z,11.63
2022-11-05T04:55:55.105Z,10.60
2022-11-05T04:58:21.827Z,10.88
2022-11-05T05:00:49.929Z,11.00
2022-11-05T05:03:16.707Z,13.13
2022-11-05T05:05:43.367Z,10.70
2022-11-05T05:08:10.053Z,10.82
2022-11-05T05:10:36.758Z,10.93
2022-11-05T05:13:03.490Z,11.48
2022-11-05T05:15:30.684Z,9.43
2022-11-05T05:17:57.407Z,10.23
2022-11-05T05:20:42.664Z,9.73
2022-11-05T05:23:10.877Z,10.77
2022-11-05T05:25:37.817Z,10.55
2022-11-05T05:28:04.662Z,11.43
2022-11-05T05:30:31.354Z,11.05
2022-11-05T05:33:02.735Z,11.00
2022-11-05T05:35:29.901Z,12.43
2022-11-05T05:37:56.770Z,11.60
2022-11-05T05:40:24.102Z,11.48
2022-11-05T05:42:56.821Z,11.10
2022-11-05T05:45:23.509Z,11.52
2022-11-05T05:47:50.205Z,11.23
2022-11-05T05:50:16.927Z,14.38
2022-11-05T05:52:51.811Z,12.57
2022-11-05T05:55:18.465Z,12.02
2022-11-05T05:57:45.302Z,12.65
2022-11-05T06:00:13.031Z,11.88
2022-11-05T06:02:40.075Z,12.35
2022-11-05T06:05:07.251Z,12.43
2022-11-05T06:07:37.176Z,11.75
2022-11-05T06:10:04.882Z,12.55
2022-11-05T06:12:31.913Z,13.50
2022-11-05T06:14:58.663Z,13.77
2022-11-05T06:17:25.362Z,13.75
2022-11-05T06:19:52.009Z,12.70
2022-11-05T06:22:18.696Z,11.52
2022-11-05T06:24:45.405Z,11.90
2022-11-05T06:27:12.193Z,12.65
2022-11-05T06:29:38.880Z,12.73
2022-11-05T06:32:05.602Z,12.85
2022-11-05T06:34:32.283Z,12.60
2022-11-05T06:36:59.766Z,12.30
2022-11-05T06:39:26.461Z,12.65
2022-11-05T06:44:39.959Z,13.40
2022-11-05T06:47:06.782Z,11.15
2022-11-05T06:49:33.491Z,12.60
2022-11-05T06:52:00.268Z,12.23
2022-11-05T06:54:27.124Z,12.90
2022-11-05T06:56:54.963Z,13.48
2022-11-05T06:59:21.666Z,15.70
2022-11-05T07:01:48.454Z,14.65
2022-11-05T07:04:15.332Z,13.73
2022-11-05T07:06:42.318Z,12.85
2022-11-05T07:09:09.270Z,13.70
2022-11-05T07:11:36.158Z,12.82
2022-11-05T07:14:02.945Z,13.32
2022-11-05T07:16:29.693Z,13.52
2022-11-05T07:18:56.399Z,11.82
2022-11-05T07:21:23.151Z,11.65
2022-11-05T07:23:49.954Z,11.75
2022-11-05T07:26:18.454Z,13.20
2022-11-05T07:28:45.383Z,11.93
2022-11-05T07:31:12.087Z,12.13
2022-11-05T07:33:38.892Z,12.93
2022-11-05T07:36:05.915Z,12.77
2022-11-05T07:38:32.723Z,13.15
2022-11-05T07:41:00.358Z,12.57
2022-11-05T07:43:27.642Z,13.00
2022-11-05T07:45:54.443Z,12.68
2022-11-05T07:48:21.553Z,12.07
2022-11-05T07:50:51.926Z,13.48
2022-11-05T07:53:20.608Z,13.00
2022-11-05T07:55:47.521Z,13.63
2022-11-05T07:58:14.498Z,14.18
2022-11-05T08:00:41.337Z,14.77
2022-11-05T08:03:10.729Z,17.13
2022-11-05T08:05:40.350Z,15.35
2022-11-05T08:08:08.779Z,14.52
2022-11-05T08:10:59.127Z,14.73
2022-11-05T08:13:24.145Z,15.70
2022-11-05T08:16:05.445Z,16.60
2022-11-05T08:18:40.487Z,15.13
2022-11-05T08:21:07.449Z,15.77
2022-11-05T08:23:34.199Z,16.13
2022-11-05T08:26:07.280Z,17.00
2022-11-05T08:28:34.211Z,16.55
2022-11-05T08:31:03.799Z,16.40
2022-11-05T08:33:31.448Z,15.73
2022-11-05T08:36:02.232Z,15.73
2022-11-05T08:38:28.967Z,16.15
2022-11-05T08:40:57.875Z,16.85
2022-11-05T08:43:24.912Z,17.65
2022-11-05T08:45:51.862Z,16.80
2022-11-05T08:48:19.370Z,16.00
2022-11-05T08:50:47.366Z,15.52
2022-11-05T08:53:15.315Z,14.98
2022-11-05T08:55:42.419Z,15.32
2022-11-05T08:58:17.294Z,13.70
2022-11-05T09:00:49.305Z,15.95
2022-11-05T09:05:43.351Z,13.13
2022-11-05T09:08:13.421Z,15.48
2022-11-05T09:10:41.015Z,15.20
2022-11-05T09:13:11.714Z,14.63
2022-11-05T09:15:41.886Z,14.27
2022-11-05T09:18:12.845Z,14.82
2022-11-05T09:20:40.103Z,15.13
2022-11-05T09:23:08.275Z,16.42
2022-11-05T09:25:35.458Z,15.27
2022-11-05T09:28:16.392Z,17.95
2022-11-05T09:30:51.456Z,17.95
2022-11-05T09:33:24.076Z,19.00
2022-11-05T09:35:52.496Z,18.60
2022-11-05T09:38:19.583Z,19.27
2022-11-05T09:41:07.238Z,19.70
2022-11-05T09:43:43.442Z,20.17
2022-11-05T09:46:36.379Z,21.77
2022-11-05T09:49:07.379Z,22.13
2022-11-05T09:51:36.049Z,21.67
2022-11-05T09:54:04.099Z,22.48
2022-11-05T09:56:33.797Z,23.38
2022-11-05T09:59:06.364Z,24.45
2022-11-05T10:01:38.067Z,23.40
2022-11-05T10:04:12.641Z,23.55
2022-11-05T10:07:03.585Z,22.35
2022-11-05T10:10:01.853Z,22.75
2022-11-05T10:12:45.376Z,23.33
2022-11-05T10:15:17.857Z,22.48
2022-11-05T10:18:02.842Z,24.65
2022-11-05T10:20:34.521Z,22.40
2022-11-05T10:23:21.522Z,22.05
2022-11-05T10:25:56.597Z,23.20
2022-11-05T10:28:26.273Z,22.60
2022-11-05T10:31:04.144Z,20.50
2022-11-05T10:33:33.891Z,20.83
2022-11-05T10:36:05.323Z,22.52
2022-11-05T10:38:32.874Z,20.85
2022-11-05T10:40:59.566Z,19.25
2022-11-05T10:43:40.795Z,19.75
2022-11-05T10:46:33.816Z,19.13
2022-11-05T10:49:31.616Z,18.48
2022-11-05T10:52:01.948Z,16.70
2022-11-05T10:54:34.815Z,16.02
2022-11-05T10:57:21.540Z,16.60
2022-11-05T10:59:48.276Z,16.05
2022-11-05T11:02:25.898Z,15.35
2022-11-05T11:04:54.774Z,14.52
2022-11-05T11:07:25.974Z,14.70
2022-11-05T11:09:53.374Z,14.05
2022-11-05T11:12:38.271Z,14.38
2022-11-05T11:15:15.276Z,13.68
2022-11-05T11:17:42.132Z,14.65
2022-11-05T11:20:18.602Z,12.52
2022-11-05T11:23:14.377Z,12.07
2022-11-05T11:25:50.891Z,12.13
2022-11-05T11:28:23.740Z,11.55
2022-11-05T11:31:03.437Z,11.40
2022-11-05T11:33:31.747Z,9.88
2022-11-05T11:35:59.173Z,9.77
2022-11-05T11:38:31.139Z,9.70
2022-11-05T11:41:09.239Z,9.32
2022-11-05T11:43:39.909Z,7.90
2022-11-05T11:46:26.189Z,8.13
2022-11-05T11:48:53.114Z,7.07
2022-11-05T11:51:31.817Z,7.75
2022-11-05T11:54:00.559Z,5.72
2022-11-05T11:56:28.939Z,6.00
2022-11-05T11:58:57.376Z,5.13
2022-11-05T12:02:01.435Z,4.50
2022-11-05T12:05:03.407Z,5.70
2022-11-05T12:07:48.338Z,4.05
2022-11-05T12:10:42.636Z,4.28
2022-11-05T12:13:18.733Z,3.97
2022-11-05T12:15:57.543Z,4.05
2022-11-05T12:18:27.132Z,3.53
2022-11-05T12:21:40.696Z,3.33
2022-11-05T12:24:31.029Z,3.80
2022-11-05T12:27:03.728Z,3.70
2022-11-05T12:30:02.446Z,2.60
2022-11-05T12:32:54.217Z,3.13
2022-11-05T12:35:36.120Z,2.60
2022-11-05T12:38:45.941Z,2.92
2022-11-05T12:41:37.524Z,2.70
2022-11-05T12:44:37.432Z,3.20
2022-11-05T12:47:33.265Z,3.05
2022-11-05T12:50:08.621Z,3.05
2022-11-05T12:52:44.256Z,3.25
2022-11-05T12:55:19.222Z,2.80
2022-11-05T12:57:51.518Z,3.15
2022-11-05T13:00:24.365Z,2.95
2022-11-05T13:03:05.121Z,3.58
2022-11-05T13:05:45.151Z,3.10
2022-11-05T13:08:18.828Z,3.15
2022-11-05T13:10:57.141Z,3.88
2022-11-05T13:13:54.346Z,2.95
2022-11-05T13:16:35.552Z,3.47
2022-11-05T13:19:20.544Z,3.83
2022-11-05T13:21:56.146Z,3.53
2022-11-05T13:24:31.078Z,3.80
2022-11-05T13:27:01.136Z,3.38
2022-11-05T13:29:35.226Z,4.10
2022-11-05T13:32:11.946Z,3.92
2022-11-05T13:34:38.710Z,3.85
2022-11-05T13:37:26.479Z,3.75
2022-11-05T13:40:00.590Z,3.85
2022-11-05T13:42:27.379Z,4.03
2022-11-05T13:45:21.959Z,3.30
2022-11-05T13:47:51.709Z,3.42
2022-11-05T13:50:53.346Z,3.90
2022-11-05T13:53:49.611Z,3.60
2022-11-05T13:56:31.361Z,3.85
2022-11-05T13:59:19.691Z,3.45
2022-11-05T14:02:02.657Z,3.30
2022-11-05T14:04:34.416Z,3.50
2022-11-05T14:07:19.454Z,4.05
2022-11-05T14:09:51.037Z,4.05
2022-11-05T14:12:30.625Z,3.33
2022-11-05T14:15:21.100Z,3.42
2022-11-05T14:18:06.327Z,4.28
2022-11-05T14:20:33.038Z,3.55
2022-11-05T14:23:17.892Z,4.05
2022-11-05T14:25:44.575Z,3.95
2022-11-05T14:28:34.573Z,3.65
2022-11-05T14:31:19.402Z,3.20
2022-11-05T14:33:54.960Z,3.33
2022-11-05T14:36:21.603Z,3.47
2022-11-05T14:38:54.363Z,3.97
2022-11-05T14:41:21.819Z,3.53
2022-11-05T14:43:59.523Z,3.85
2022-11-05T14:46:41.406Z,3.00
2022-11-05T14:49:17.652Z,3.40
2022-11-05T14:51:48.089Z,3.45
2022-11-05T14:54:20.805Z,2.95
2022-11-05T14:56:59.399Z,3.10
2022-11-05T14:59:28.946Z,3.42
2022-11-05T15:02:09.684Z,3.13
2022-11-05T15:04:37.655Z,3.30
2022-11-05T15:07:04.378Z,3.05
2022-11-05T15:09:44.737Z,2.90
2022-11-05T15:12:19.826Z,3.15
2022-11-05T15:15:00.549Z,3.47
2022-11-05T15:17:48.976Z,3.38
2022-11-05T15:20:28.686Z,2.83
2022-11-05T15:23:00.457Z,3.70
2022-11-05T15:25:52.761Z,3.00
2022-11-05T15:28:43.652Z,2.88
2022-11-05T15:31:13.462Z,2.65
2022-11-05T15:33:41.613Z,3.53
2022-11-05T15:36:25.180Z,2.50
2022-11-05T15:39:22.894Z,3.30
2022-11-05T15:41:39.005Z,3.05
2022-11-05T15:44:05.756Z,3.00
2022-11-05T15:46:32.623Z,2.83
2022-11-05T15:49:04.710Z,2.78
2022-11-05T15:54:29.823Z,3.45
2022-11-05T15:56:52.011Z,3.42
2022-11-05T15:59:23.590Z,3.25
2022-11-05T16:02:15.533Z,3.35
2022-11-05T16:04:47.694Z,3.00
2022-11-05T16:09:50.037Z,3.85
2022-11-05T16:12:19.671Z,3.67
2022-11-05T16:15:08.060Z,3.20
2022-11-05T16:17:37.750Z,3.25
2022-11-05T16:20:18.049Z,3.55
2022-11-05T16:22:50.050Z,3.50
2022-11-05T16:25:24.342Z,3.35
2022-11-05T16:27:51.062Z,2.97
2022-11-05T16:30:19.353Z,3.58
2022-11-05T16:32:47.365Z,4.78
2022-11-05T16:35:19.920Z,3.53
2022-11-05T16:37:51.875Z,3.47
2022-11-05T16:40:24.792Z,3.33
2022-11-05T16:42:55.311Z,3.97
2022-11-05T16:45:24.628Z,3.40
2022-11-05T16:47:51.879Z,3.70
2022-11-05T16:50:20.896Z,3.38
2022-11-05T16:52:47.926Z,3.50
2022-11-05T16:55:16.142Z,3.25
2022-11-05T16:57:45.404Z,4.10
2022-11-05T17:00:17.387Z,3.10
2022-11-05T17:02:45.494Z,4.03
2022-11-05T17:05:28.393Z,3.33
2022-11-05T17:07:55.935Z,3.40
2022-11-05T17:10:24.760Z,3.72
2022-11-05T17:12:52.216Z,3.42
2022-11-05T17:15:26.489Z,4.13
2022-11-05T17:17:54.363Z,3.40
2022-11-05T17:20:28.534Z,3.28
2022-11-05T17:22:56.452Z,3.20
2022-11-05T17:25:24.111Z,4.30
2022-11-05T17:27:51.246Z,4.55
2022-11-05T17:30:18.228Z,5.18
2022-11-05T17:32:44.988Z,3.58
2022-11-05T17:35:14.176Z,4.43
2022-11-05T17:37:41.547Z,4.15
2022-11-05T17:40:12.447Z,4.38
2022-11-05T17:42:39.203Z,4.15
2022-11-05T17:45:06.855Z,4.57
2022-11-05T17:47:35.079Z,4.10
2022-11-05T17:50:01.890Z,4.20
2022-11-05T17:52:29.035Z,3.72
2022-11-05T17:54:55.776Z,3.67
2022-11-05T17:57:22.505Z,4.38
2022-11-05T17:59:49.235Z,3.35
2022-11-05T18:02:16.100Z,3.60
2022-11-05T18:04:42.953Z,3.22
2022-11-05T18:07:10.532Z,3.22
2022-11-05T18:09:37.848Z,4.05
2022-11-05T18:12:05.204Z,4.07
2022-11-05T18:14:32.322Z,3.28
2022-11-05T18:17:00.293Z,4.00
2022-11-05T18:19:28.003Z,5.20
2022-11-05T18:21:55.546Z,3.45
2022-11-05T18:24:43.973Z,3.17
2022-11-05T18:27:10.812Z,3.35
2022-11-05T18:29:37.977Z,4.05
2022-11-05T18:32:05.115Z,3.05
2022-11-05T18:34:32.060Z,2.95
2022-11-05T18:36:58.743Z,3.50
2022-11-05T18:39:26.711Z,4.00
2022-11-05T18:41:53.438Z,4.88
2022-11-05T18:44:22.732Z,3.80
2022-11-05T18:46:58.028Z,3.10
2022-11-05T18:49:26.153Z,5.15
2022-11-05T18:51:52.961Z,3.72
2022-11-05T18:54:19.932Z,3.20
2022-11-05T18:56:46.658Z,3.65
2022-11-05T18:59:35.955Z,3.28
2022-11-05T19:02:03.107Z,2.67
2022-11-05T19:04:30.568Z,2.88
2022-11-05T19:07:03.121Z,4.07
2022-11-05T19:09:31.503Z,2.55
2022-11-05T19:11:58.318Z,3.28
2022-11-05T19:14:25.104Z,2.42
2022-11-05T19:16:51.782Z,3.20
2022-11-05T19:19:18.555Z,2.88
2022-11-05T19:21:45.726Z,2.65
2022-11-05T19:24:16.875Z,2.60
2022-11-05T19:26:44.239Z,2.92
2022-11-05T19:29:11.212Z,2.80
2022-11-05T19:31:38.945Z,3.63
2022-11-05T19:34:05.822Z,2.65
2022-11-05T19:36:33.776Z,2.58
2022-11-05T19:39:04.060Z,3.00
2022-11-05T19:41:30.940Z,2.65
2022-11-05T19:43:59.145Z,2.92
2022-11-05T19:46:26.254Z,2.53
2022-11-05T19:48:53.144Z,2.38
2022-11-05T19:51:22.926Z,2.53
2022-11-05T19:53:52.340Z,1.90
2022-11-05T19:56:21.345Z,2.50
2022-11-05T19:58:48.780Z,2.88
2022-11-05T20:01:17.044Z,2.85
2022-11-05T20:03:44.589Z,2.80
2022-11-05T20:06:17.040Z,2.10
2022-11-05T20:09:14.811Z,3.05
2022-11-05T20:11:31.715Z,2.65
2022-11-05T20:13:58.468Z,3.33
2022-11-05T20:16:32.175Z,3.10
2022-11-05T20:18:58.955Z,2.33
2022-11-05T20:21:25.796Z,2.42
2022-11-05T20:23:56.499Z,2.05
2022-11-05T20:26:23.678Z,2.67
2022-11-05T20:28:50.437Z,5.15
2022-11-05T20:31:17.920Z,3.45
2022-11-05T20:33:45.888Z,2.10
2022-11-05T20:36:16.030Z,2.30
2022-11-05T20:38:44.672Z,2.03
2022-11-05T20:41:13.007Z,2.03
2022-11-05T20:43:43.988Z,2.05
2022-11-05T20:46:15.130Z,2.55
2022-11-05T20:48:43.440Z,3.27
2022-11-05T20:51:13.024Z,1.88
2022-11-05T20:53:40.378Z,2.80
2022-11-05T20:56:10.439Z,2.33
2022-11-05T20:58:37.807Z,4.03
2022-11-05T21:01:05.669Z,2.63
2022-11-05T21:03:32.873Z,2.35
2022-11-05T21:06:04.417Z,2.28
2022-11-05T21:08:31.640Z,3.10
2022-11-05T21:10:58.992Z,2.10
2022-11-05T21:13:26.613Z,2.40
2022-11-05T21:15:56.160Z,2.58
2022-11-05T21:18:25.194Z,2.22
2022-11-05T21:20:52.022Z,2.60
2022-11-05T21:23:19.009Z,2.55
2022-11-05T21:25:46.278Z,2.10
2022-11-05T21:28:14.429Z,2.45
2022-11-05T21:30:44.934Z,2.75
2022-11-05T21:33:13.721Z,2.65
2022-11-05T21:35:44.560Z,2.55
2022-11-05T21:38:13.105Z,2.50
2022-11-05T21:40:40.616Z,2.33
2022-11-05T21:43:08.149Z,2.35
2022-11-05T21:45:34.902Z,2.92
2022-11-05T21:48:01.838Z,2.40
2022-11-05T21:50:47.354Z,2.33
2022-11-05T21:53:33.868Z,2.25
2022-11-05T21:56:23.503Z,2.45
2022-11-05T21:59:09.022Z,2.90
2022-11-05T22:01:35.859Z,2.20
2022-11-05T22:04:03.389Z,3.22
2022-11-05T22:06:33.225Z,2.75
2022-11-05T22:09:00.279Z,2.80
2022-11-05T22:11:26.954Z,2.83
2022-11-05T22:13:53.718Z,2.47
2022-11-05T22:16:20.535Z,2.30
2022-11-05T22:18:47.313Z,2.30
2022-11-05T22:21:18.833Z,2.95
2022-11-05T22:23:45.770Z,2.25
2022-11-05T22:26:12.566Z,2.60
2022-11-05T22:28:39.242Z,3.42
2022-11-05T22:31:13.503Z,3.10
2022-11-05T22:33:40.370Z,2.72
2022-11-05T22:36:07.651Z,3.17
2022-11-05T22:38:34.821Z,2.90
2022-11-05T22:41:13.567Z,2.95
2022-11-05T22:43:40.470Z,3.30
2022-11-05T22:46:11.154Z,2.75
2022-11-05T22:48:39.556Z,3.10
2022-11-05T22:51:15.111Z,2.60
2022-11-05T22:53:42.477Z,2.80
2022-11-05T22:56:13.902Z,3.13
2022-11-05T22:58:41.244Z,3.65
2022-11-05T23:01:11.673Z,3.05
2022-11-05T23:03:40.135Z,3.17
2022-11-05T23:06:43.090Z,2.28
2022-11-05T23:09:49.705Z,3.08
2022-11-05T23:12:28.488Z,2.95
2022-11-05T23:14:57.769Z,3.05
2022-11-05T23:17:48.090Z,3.30
2022-11-05T23:20:38.605Z,2.75
2022-11-05T23:23:28.349Z,3.75
2022-11-05T23:25:59.106Z,2.92
2022-11-05T23:28:26.288Z,2.88
2022-11-05T23:31:11.681Z,2.90
2022-11-05T23:33:38.372Z,3.10
2022-11-05T23:36:24.190Z,3.05
2022-11-05T23:38:50.945Z,2.88
2022-11-05T23:41:36.327Z,3.17
2022-11-05T23:44:22.035Z,2.75
2022-11-05T23:47:07.203Z,2.83
2022-11-05T23:49:33.959Z,3.60
2022-11-05T23:52:00.636Z,2.67
2022-11-05T23:54:27.609Z,2.90
2022-11-05T23:56:54.338Z,3.10
2022-11-05T23:59:21.133Z,2.97
